Time;durP1;ratioP1;P1;durP2;ratioP2;P2;SDS_P1;SDS_P2;PMS_P1;PMS_P2;Temp;Humidity;BMP_temperature;BMP_pressure;BME280_temperature;BME280_humidity;BME280_pressure;Samples;Min_cycle;Max_cycle;Signal;HPM_P1;HPM_P2
2022/11/13 00:01:05;;;;;;;;;;;2.00;99.90;;;;;;5076326;28;19982;-70
2022/11/13 00:03:31;;;;;;;;;;;2.00;99.90;;;;;;5075997;28;19944;-70
2022/11/13 00:05:57;;;;;;;;;;;2.00;99.90;;;;;;5074845;28;20449;-70
2022/11/13 00:08:23;;;;;;;;;;;1.90;99.90;;;;;;5075905;28;20261;-69
2022/11/13 00:10:48;;;;;;;;;;;1.90;99.90;;;;;;5076455;28;19920;-70
2022/11/13 00:13:14;;;;;;;;;;;1.90;99.90;;;;;;5057893;28;19913;-70
2022/11/13 00:15:39;;;;;;;;;;;1.90;99.90;;;;;;5075784;28;19966;-69
2022/11/13 00:18:05;;;;;;;;;;;1.80;99.90;;;;;;5075651;28;19908;-70
2022/11/13 00:20:30;;;;;;;;;;;1.80;99.90;;;;;;5075641;28;19916;-69
2022/11/13 00:22:56;;;;;;;;;;;1.80;99.90;;;;;;5076106;28;19913;-69
2022/11/13 00:25:21;;;;;;;;;;;1.90;99.90;;;;;;5074185;28;19922;-70
2022/11/13 00:27:47;;;;;;;;;;;1.80;99.90;;;;;;5074205;28;19919;-69
2022/11/13 00:30:12;;;;;;;;;;;1.80;99.90;;;;;;5075701;28;19913;-69
2022/11/13 00:32:39;;;;;;;;;;;1.80;99.90;;;;;;5074105;28;19913;-69
2022/11/13 00:35:05;;;;;;;;;;;1.80;99.90;;;;;;5074005;28;19919;-69
2022/11/13 00:37:30;;;;;;;;;;;1.80;99.90;;;;;;5075225;28;19916;-69
2022/11/13 00:39:56;;;;;;;;;;;1.70;99.90;;;;;;5075253;28;19919;-69
2022/11/13 00:42:21;;;;;;;;;;;1.60;99.90;;;;;;5075463;28;19959;-69
2022/11/13 00:44:47;;;;;;;;;;;1.70;99.90;;;;;;5075059;28;19966;-70
2022/11/13 00:47:12;;;;;;;;;;;1.60;99.90;;;;;;5075628;28;19912;-69
2022/11/13 00:49:38;;;;;;;;;;;1.60;99.90;;;;;;5073859;28;19958;-69
2022/11/13 00:52:03;;;;;;;;;;;1.60;99.90;;;;;;5075135;28;19913;-69
2022/11/13 00:54:29;;;;;;;;;;;1.50;99.90;;;;;;5073756;28;19916;-69
2022/11/13 00:56:54;;;;;;;;;;;1.50;99.90;;;;;;5074825;28;19958;-69
2022/11/13 00:59:20;;;;;;;;;;;1.50;99.90;;;;;;5074870;28;20022;-70
2022/11/13 01:01:45;;;;;;;;;;;1.50;99.90;;;;;;5073813;28;19913;-69
2022/11/13 01:04:11;;;;;;;;;;;1.60;99.90;;;;;;5073502;28;19913;-69
2022/11/13 01:06:36;;;;;;;;;;;1.50;99.90;;;;;;5074665;28;19913;-70
2022/11/13 01:09:02;;;;;;;;;;;1.50;99.90;;;;;;5074958;28;19912;-69
2022/11/13 01:11:28;;;;;;;;;;;1.50;99.90;;;;;;5056661;28;19952;-69
2022/11/13 01:13:54;;;;;;;;;;;1.50;99.90;;;;;;5074571;28;19908;-69
2022/11/13 01:16:21;;;;;;;;;;;1.50;99.90;;;;;;5056335;28;19927;-69
2022/11/13 01:18:47;;;;;;;;;;;1.40;99.90;;;;;;5074439;28;19938;-69
2022/11/13 01:21:14;;;;;;;;;;;1.40;99.90;;;;;;5074662;28;19908;-69
2022/11/13 01:23:40;;;;;;;;;;;1.40;99.90;;;;;;5073146;28;19909;-69
2022/11/13 01:26:11;;;;;;;;;;;1.30;99.90;;;;;;5074281;28;19942;-70
2022/11/13 01:28:37;;;;;;;;;;;1.30;99.90;;;;;;5074272;28;19916;-69
2022/11/13 01:31:06;;;;;;;;;;;1.30;99.90;;;;;;5074505;28;19909;-69
2022/11/13 01:33:32;;;;;;;;;;;1.30;99.90;;;;;;5074181;28;19981;-69
2022/11/13 01:36:05;;;;;;;;;;;1.30;99.90;;;;;;5074640;28;20360;-69
2022/11/13 01:38:31;;;;;;;;;;;1.30;99.90;;;;;;5074386;28;19947;-69
2022/11/13 01:40:57;;;;;;;;;;;1.20;99.90;;;;;;5074086;28;20035;-69
2022/11/13 01:43:23;;;;;;;;;;;1.20;99.90;;;;;;5074349;28;19913;-69
2022/11/13 01:45:58;;;;;;;;;;;1.30;99.90;;;;;;5073954;28;19908;-69
2022/11/13 01:48:27;;;;;;;;;;;1.20;99.90;;;;;;5074513;28;19908;-69
2022/11/13 01:50:53;;;;;;;;;;;1.20;99.90;;;;;;5074220;28;19909;-69
2022/11/13 01:53:18;;;;;;;;;;;1.20;99.90;;;;;;5073891;28;19919;-69
2022/11/13 01:55:45;;;;;;;;;;;1.20;99.90;;;;;;5073712;28;20383;-69
2022/11/13 01:58:11;;;;;;;;;;;1.30;99.90;;;;;;5072832;28;19962;-69
2022/11/13 02:00:37;;;;;;;;;;;1.20;99.90;;;;;;5073812;28;19931;-69
2022/11/13 02:03:02;;;;;;;;;;;1.20;99.90;;;;;;5073283;28;20371;-69
2022/11/13 02:05:28;;;;;;;;;;;1.20;99.90;;;;;;5072352;28;19920;-69
2022/11/13 02:07:53;;;;;;;;;;;1.20;99.90;;;;;;5073986;28;20011;-69
2022/11/13 02:10:19;;;;;;;;;;;1.20;99.90;;;;;;5073688;28;19912;-69
2022/11/13 02:12:49;;;;;;;;;;;1.20;99.90;;;;;;5073910;28;19995;-69
2022/11/13 02:15:15;;;;;;;;;;;1.20;99.90;;;;;;5073552;28;20004;-69
2022/11/13 02:17:43;;;;;;;;;;;1.20;99.90;;;;;;5072192;28;20292;-69
2022/11/13 02:20:09;;;;;;;;;;;1.10;99.90;;;;;;5072996;28;20319;-69
2022/11/13 02:22:34;;;;;;;;;;;1.10;99.90;;;;;;5073605;28;19952;-69
2022/11/13 02:25:01;;;;;;;;;;;1.10;99.90;;;;;;5073484;28;20387;-69
2022/11/13 02:27:43;;;;;;;;;;;1.10;99.90;;;;;;5072803;28;19909;-69
2022/11/13 02:30:15;;;;;;;;;;;1.10;99.90;;;;;;5073552;28;19909;-68
2022/11/13 02:32:41;;;;;;;;;;;1.10;99.90;;;;;;5073488;28;19915;-69
2022/11/13 02:35:07;;;;;;;;;;;1.10;99.90;;;;;;5073910;28;19917;-70
2022/11/13 02:37:33;;;;;;;;;;;1.00;99.90;;;;;;5073670;28;20019;-72
2022/11/13 02:39:59;;;;;;;;;;;1.00;99.90;;;;;;5073426;28;20000;-72
2022/11/13 02:42:24;;;;;;;;;;;0.90;99.90;;;;;;5073387;28;19908;-72
2022/11/13 02:44:50;;;;;;;;;;;0.90;99.90;;;;;;5073319;28;19912;-72
2022/11/13 02:47:15;;;;;;;;;;;0.80;99.90;;;;;;5072025;28;19908;-72
2022/11/13 02:49:41;;;;;;;;;;;0.80;99.90;;;;;;5073852;28;19922;-72
2022/11/13 02:52:06;;;;;;;;;;;0.70;99.90;;;;;;5073563;28;19948;-72
2022/11/13 02:54:32;;;;;;;;;;;0.70;99.90;;;;;;5073597;28;19944;-72
2022/11/13 02:56:57;;;;;;;;;;;0.70;99.90;;;;;;5073043;28;20357;-72
2022/11/13 02:59:23;;;;;;;;;;;0.70;99.90;;;;;;5073213;28;19913;-72
2022/11/13 03:01:49;;;;;;;;;;;0.70;99.90;;;;;;5073227;28;19985;-72
2022/11/13 03:04:14;;;;;;;;;;;0.60;99.90;;;;;;5072227;28;19913;-72
2022/11/13 03:06:40;;;;;;;;;;;0.60;99.90;;;;;;5073116;28;19912;-72
2022/11/13 03:09:05;;;;;;;;;;;0.70;99.90;;;;;;5073421;28;19913;-72
2022/11/13 03:11:31;;;;;;;;;;;0.70;99.90;;;;;;5073349;28;19916;-72
2022/11/13 03:13:57;;;;;;;;;;;0.80;99.90;;;;;;5073593;28;20007;-72
2022/11/13 03:16:22;;;;;;;;;;;0.80;99.90;;;;;;5075276;28;20030;-72
2022/11/13 03:18:48;;;;;;;;;;;0.80;99.90;;;;;;5077090;28;19957;-72
2022/11/13 03:21:14;;;;;;;;;;;0.80;99.90;;;;;;5076748;28;19916;-72
2022/11/13 03:23:40;;;;;;;;;;;0.80;99.90;;;;;;5076665;28;19916;-72
2022/11/13 03:26:08;;;;;;;;;;;0.80;99.90;;;;;;5076921;28;19917;-71
2022/11/13 03:28:34;;;;;;;;;;;0.80;99.90;;;;;;5076593;28;19908;-71
2022/11/13 03:31:00;;;;;;;;;;;0.70;99.90;;;;;;5076534;28;19908;-71
2022/11/13 03:33:25;;;;;;;;;;;0.70;99.90;;;;;;5076547;28;20007;-72
2022/11/13 03:35:51;;;;;;;;;;;0.70;99.90;;;;;;5076385;28;19921;-72
2022/11/13 03:38:16;;;;;;;;;;;0.70;99.90;;;;;;5076450;28;19967;-72
2022/11/13 03:40:42;;;;;;;;;;;0.70;99.90;;;;;;5076658;28;19962;-72
2022/11/13 03:43:07;;;;;;;;;;;0.70;99.90;;;;;;5076656;28;19918;-72
2022/11/13 03:45:33;;;;;;;;;;;0.70;99.90;;;;;;5076252;28;19920;-71
2022/11/13 03:47:58;;;;;;;;;;;0.70;99.90;;;;;;5074965;28;19913;-72
2022/11/13 03:50:24;;;;;;;;;;;0.70;99.90;;;;;;5076250;28;19920;-72
2022/11/13 03:52:50;;;;;;;;;;;0.70;99.90;;;;;;5076197;28;19912;-72
2022/11/13 03:55:16;;;;;;;;;;;0.70;99.90;;;;;;5076337;28;19997;-72
2022/11/13 03:57:42;;;;;;;;;;;0.70;99.90;;;;;;5075089;28;19959;-72
2022/11/13 04:00:08;;;;;;;;;;;0.70;99.90;;;;;;5075465;28;19913;-72
2022/11/13 04:02:33;;;;;;;;;;;0.70;99.90;;;;;;5075990;28;19999;-72
2022/11/13 04:04:59;;;;;;;;;;;0.60;99.90;;;;;;5076149;28;19912;-71
2022/11/13 04:07:24;;;;;;;;;;;0.50;99.90;;;;;;5075860;28;19909;-72
2022/11/13 04:09:50;;;;;;;;;;;0.50;99.90;;;;;;5076145;28;19920;-72
2022/11/13 04:12:15;;;;;;;;;;;0.40;99.90;;;;;;5075890;28;20371;-72
2022/11/13 04:14:41;;;;;;;;;;;0.40;99.90;;;;;;5074558;28;19931;-72
2022/11/13 04:17:06;;;;;;;;;;;0.40;99.90;;;;;;5075678;28;19924;-71
2022/11/13 04:19:32;;;;;;;;;;;0.40;99.90;;;;;;5075696;28;19913;-72
2022/11/13 04:21:58;;;;;;;;;;;0.40;99.90;;;;;;5075951;28;19934;-71
2022/11/13 04:24:23;;;;;;;;;;;0.40;99.90;;;;;;5075553;28;20369;-71
2022/11/13 04:26:49;;;;;;;;;;;0.50;99.90;;;;;;5075006;28;20296;-71
2022/11/13 04:29:14;;;;;;;;;;;0.50;99.90;;;;;;5075494;28;20365;-72
2022/11/13 04:31:40;;;;;;;;;;;0.40;99.90;;;;;;5075696;28;20383;-72
2022/11/13 04:34:05;;;;;;;;;;;0.50;99.90;;;;;;5075979;28;20371;-71
2022/11/13 04:36:31;;;;;;;;;;;0.50;99.90;;;;;;5073934;28;19920;-71
2022/11/13 04:38:56;;;;;;;;;;;0.50;99.90;;;;;;5074011;28;19913;-71
2022/11/13 04:44:06;;;;;;;;;;;0.50;99.90;;;;;;5075816;28;19936;-71
2022/11/13 04:46:31;;;;;;;;;;;0.50;99.90;;;;;;5075070;28;20364;-71
2022/11/13 04:48:57;;;;;;;;;;;0.50;99.90;;;;;;5075380;28;20372;-71
2022/11/13 04:51:22;;;;;;;;;;;0.50;99.90;;;;;;5057159;28;19919;-72
2022/11/13 04:53:48;;;;;;;;;;;0.50;99.90;;;;;;5075004;28;19912;-71
2022/11/13 04:56:13;;;;;;;;;;;0.40;99.90;;;;;;5075100;28;19923;-71
2022/11/13 04:58:39;;;;;;;;;;;0.50;99.90;;;;;;5074925;28;19913;-71
2022/11/13 05:01:04;;;;;;;;;;;0.50;99.90;;;;;;5075164;28;19913;-71
2022/11/13 05:03:30;;;;;;;;;;;0.50;99.90;;;;;;5074756;28;19999;-71
2022/11/13 05:06:03;;;;;;;;;;;0.50;99.90;;;;;;5074283;28;19912;-68
2022/11/13 05:08:29;;;;;;;;;;;0.50;99.90;;;;;;5074972;28;19908;-68
2022/11/13 05:10:54;;;;;;;;;;;0.40;99.90;;;;;;5073403;28;19912;-68
2022/11/13 05:13:20;;;;;;;;;;;0.40;99.90;;;;;;5074583;28;19912;-67
2022/11/13 05:15:45;;;;;;;;;;;0.40;99.90;;;;;;5073070;28;19920;-68
2022/11/13 05:18:11;;;;;;;;;;;0.30;99.90;;;;;;5074478;28;19917;-68
2022/11/13 05:20:36;;;;;;;;;;;0.30;99.90;;;;;;5074755;28;19912;-68
2022/11/13 05:23:02;;;;;;;;;;;0.30;99.90;;;;;;5073307;28;20284;-68
2022/11/13 05:25:28;;;;;;;;;;;0.20;99.90;;;;;;5074285;28;19913;-68
2022/11/13 05:27:55;;;;;;;;;;;0.20;99.90;;;;;;5075169;28;20313;-68
2022/11/13 05:30:21;;;;;;;;;;;0.20;99.90;;;;;;5074589;28;20419;-68
2022/11/13 05:32:47;;;;;;;;;;;0.20;99.90;;;;;;5073300;28;19913;-68
2022/11/13 05:35:12;;;;;;;;;;;0.10;99.90;;;;;;5074242;28;19912;-68
2022/11/13 05:37:38;;;;;;;;;;;0.00;99.90;;;;;;5073360;28;19966;-68
2022/11/13 05:40:03;;;;;;;;;;;0.00;99.90;;;;;;5074123;28;19912;-68
2022/11/13 05:42:29;;;;;;;;;;;0.00;99.90;;;;;;5074088;28;20284;-68
2022/11/13 05:44:55;;;;;;;;;;;0.00;99.90;;;;;;5074004;28;20433;-68
2022/11/13 05:47:20;;;;;;;;;;;0.00;99.90;;;;;;5073903;28;19978;-68
2022/11/13 05:49:46;;;;;;;;;;;0.00;99.90;;;;;;5073922;28;20026;-67
2022/11/13 05:52:11;;;;;;;;;;;0.00;99.90;;;;;;5074172;28;19970;-67
2022/11/13 05:54:37;;;;;;;;;;;-0.10;99.90;;;;;;5072579;28;19989;-68
2022/11/13 05:57:03;;;;;;;;;;;-0.10;99.90;;;;;;5074222;28;19924;-68
2022/11/13 05:59:28;;;;;;;;;;;-0.10;99.90;;;;;;5072766;28;19952;-68
2022/11/13 06:01:54;;;;;;;;;;;-0.20;99.90;;;;;;5073667;28;19916;-69
2022/11/13 06:04:20;;;;;;;;;;;-0.20;99.90;;;;;;5074090;28;19966;-68
2022/11/13 06:06:45;;;;;;;;;;;-0.20;99.90;;;;;;5072342;28;19999;-69
2022/11/13 06:09:13;;;;;;;;;;;-0.20;99.90;;;;;;5071879;28;19962;-68
2022/11/13 06:11:39;;;;;;;;;;;-0.20;99.90;;;;;;5072573;28;19927;-69
2022/11/13 06:14:04;;;;;;;;;;;-0.20;99.90;;;;;;5071266;28;20015;-68
2022/11/13 06:16:34;;;;;;;;;;;-0.20;99.90;;;;;;5070659;28;19916;-68
2022/11/13 06:19:00;;;;;;;;;;;-0.20;99.90;;;;;;5072981;28;19909;-68
2022/11/13 06:21:27;;;;;;;;;;;-0.30;99.90;;;;;;5071982;28;19909;-69
2022/11/13 06:23:53;;;;;;;;;;;-0.30;99.90;;;;;;5072942;28;19915;-69
2022/11/13 06:26:20;;;;;;;;;;;-0.30;99.90;;;;;;5072927;28;19909;-68
2022/11/13 06:28:46;;;;;;;;;;;-0.30;99.90;;;;;;5072102;28;19909;-69
2022/11/13 06:31:13;;;;;;;;;;;-0.30;99.90;;;;;;5071699;28;20062;-70
2022/11/13 06:33:39;;;;;;;;;;;-0.30;99.90;;;;;;5055618;28;19909;-68
2022/11/13 06:36:06;;;;;;;;;;;-0.30;99.90;;;;;;5072805;28;19916;-68
2022/11/13 06:38:33;;;;;;;;;;;-0.30;99.90;;;;;;5072076;28;19963;-71
2022/11/13 06:40:59;;;;;;;;;;;-0.20;99.90;;;;;;5071446;28;19935;-68
2022/11/13 06:43:26;;;;;;;;;;;-0.20;99.90;;;;;;5072684;28;20380;-68
2022/11/13 06:45:52;;;;;;;;;;;-0.20;99.90;;;;;;5070415;28;19919;-68
2022/11/13 06:48:17;;;;;;;;;;;-0.20;99.90;;;;;;5055760;28;19913;-68
2022/11/13 06:50:43;;;;;;;;;;;-0.30;99.90;;;;;;5074504;28;19962;-67
2022/11/13 06:53:09;;;;;;;;;;;-0.20;99.90;;;;;;5075472;28;19962;-68
2022/11/13 06:55:34;;;;;;;;;;;-0.20;99.90;;;;;;5074089;28;19912;-68
2022/11/13 06:58:00;;;;;;;;;;;-0.20;99.90;;;;;;5076627;28;20348;-67
2022/11/13 07:00:25;;;;;;;;;;;-0.20;99.90;;;;;;5074333;28;19912;-68
2022/11/13 07:02:51;;;;;;;;;;;-0.20;99.90;;;;;;5069439;28;19938;-68
2022/11/13 07:05:16;;;;;;;;;;;-0.20;99.90;;;;;;5076243;28;19912;-69
2022/11/13 07:07:42;;;;;;;;;;;-0.30;99.90;;;;;;5075069;28;19913;-68
2022/11/13 07:10:08;;;;;;;;;;;-0.20;99.90;;;;;;5075695;28;19939;-68
2022/11/13 07:12:33;;;;;;;;;;;-0.20;99.90;;;;;;5076360;28;19954;-68
2022/11/13 07:14:59;;;;;;;;;;;-0.20;99.90;;;;;;5073916;28;20321;-68
2022/11/13 07:17:25;;;;;;;;;;;-0.10;99.90;;;;;;5076095;28;19912;-68
2022/11/13 07:19:50;;;;;;;;;;;-0.10;99.90;;;;;;5075466;28;20025;-69
2022/11/13 07:22:16;;;;;;;;;;;-0.10;99.90;;;;;;5076029;28;19912;-68
2022/11/13 07:24:41;;;;;;;;;;;0.00;99.90;;;;;;5076141;28;19912;-68
2022/11/13 07:27:07;;;;;;;;;;;0.00;99.90;;;;;;5075055;28;19908;-68
2022/11/13 07:29:35;;;;;;;;;;;0.00;99.90;;;;;;5075923;28;20284;-68
2022/11/13 07:32:00;;;;;;;;;;;0.10;99.90;;;;;;5075025;28;19916;-69
2022/11/13 07:34:26;;;;;;;;;;;0.10;99.90;;;;;;5076009;28;19908;-69
2022/11/13 07:36:52;;;;;;;;;;;0.20;99.90;;;;;;5068505;28;20288;-68
2022/11/13 07:39:17;;;;;;;;;;;0.20;99.90;;;;;;5075431;28;19966;-68
2022/11/13 07:41:43;;;;;;;;;;;0.40;99.90;;;;;;5075244;28;19989;-68
2022/11/13 07:44:08;;;;;;;;;;;0.60;99.90;;;;;;5076324;28;20382;-68
2022/11/13 07:46:34;;;;;;;;;;;0.60;99.90;;;;;;5076055;28;19920;-68
2022/11/13 07:48:59;;;;;;;;;;;0.70;99.90;;;;;;5075533;28;19913;-69
2022/11/13 07:51:25;;;;;;;;;;;0.80;99.90;;;;;;5075806;28;20387;-68
2022/11/13 07:53:50;;;;;;;;;;;0.90;99.90;;;;;;5076177;28;19932;-68
2022/11/13 07:56:16;;;;;;;;;;;1.00;99.90;;;;;;5076002;28;19994;-68
2022/11/13 07:58:42;;;;;;;;;;;1.00;99.90;;;;;;5076370;28;19984;-68
2022/11/13 08:01:07;;;;;;;;;;;1.00;99.90;;;;;;5075227;28;19909;-68
2022/11/13 08:03:33;;;;;;;;;;;1.10;99.90;;;;;;5075999;28;19943;-68
2022/11/13 08:06:00;;;;;;;;;;;1.10;99.90;;;;;;5074563;28;19989;-68
2022/11/13 08:08:26;;;;;;;;;;;1.20;99.90;;;;;;5076242;28;20024;-68
2022/11/13 08:10:51;;;;;;;;;;;1.30;99.90;;;;;;5075234;28;19963;-68
2022/11/13 08:13:17;;;;;;;;;;;1.40;99.90;;;;;;5076110;28;19919;-68
2022/11/13 08:15:43;;;;;;;;;;;1.40;99.90;;;;;;5075607;28;19921;-68
2022/11/13 08:18:08;;;;;;;;;;;1.50;99.90;;;;;;5076071;28;19912;-68
2022/11/13 08:20:34;;;;;;;;;;;1.50;99.90;;;;;;5076004;28;19966;-68
2022/11/13 08:23:00;;;;;;;;;;;1.50;99.90;;;;;;5075630;28;20070;-68
2022/11/13 08:25:27;;;;;;;;;;;1.60;99.90;;;;;;5075833;28;19958;-68
2022/11/13 08:27:53;;;;;;;;;;;1.60;99.90;;;;;;5075598;28;19915;-68
2022/11/13 08:30:19;;;;;;;;;;;1.70;99.90;;;;;;5075584;28;19908;-68
2022/11/13 08:32:45;;;;;;;;;;;1.70;99.90;;;;;;5075650;28;19915;-68
2022/11/13 08:35:11;;;;;;;;;;;1.80;99.90;;;;;;5075409;28;19980;-69
2022/11/13 08:37:36;;;;;;;;;;;1.90;99.90;;;;;;5075355;28;19955;-68
2022/11/13 08:40:02;;;;;;;;;;;2.00;99.90;;;;;;5075459;28;19919;-68
2022/11/13 08:42:28;;;;;;;;;;;2.10;99.90;;;;;;5075647;28;19952;-69
2022/11/13 08:44:53;;;;;;;;;;;2.20;99.90;;;;;;5075228;28;19913;-69
2022/11/13 08:47:19;;;;;;;;;;;2.30;99.90;;;;;;5075195;28;19913;-68
2022/11/13 08:49:44;;;;;;;;;;;2.40;99.90;;;;;;5075182;28;19926;-69
2022/11/13 08:52:10;;;;;;;;;;;2.50;99.90;;;;;;5075408;28;19919;-68
2022/11/13 08:54:35;;;;;;;;;;;2.60;99.90;;;;;;5075027;28;19913;-69
2022/11/13 08:57:01;;;;;;;;;;;2.70;99.90;;;;;;5073648;28;19920;-68
2022/11/13 08:59:27;;;;;;;;;;;2.80;99.90;;;;;;5075255;28;19912;-69
2022/11/13 09:01:58;;;;;;;;;;;3.00;99.90;;;;;;5074896;28;20025;-69
2022/11/13 09:04:24;;;;;;;;;;;3.10;99.90;;;;;;5073576;28;19913;-69
2022/11/13 09:06:50;;;;;;;;;;;3.20;99.90;;;;;;5073338;28;20327;-69
2022/11/13 09:09:15;;;;;;;;;;;3.40;99.90;;;;;;5074667;28;19923;-69
2022/11/13 09:11:41;;;;;;;;;;;3.50;99.90;;;;;;5073311;28;19916;-69
2022/11/13 09:14:07;;;;;;;;;;;3.60;99.90;;;;;;5074527;28;19938;-70
2022/11/13 09:16:32;;;;;;;;;;;3.80;99.90;;;;;;5074718;28;19923;-70
2022/11/13 09:18:58;;;;;;;;;;;4.00;99.90;;;;;;5074587;28;19912;-70
2022/11/13 09:21:23;;;;;;;;;;;4.10;99.90;;;;;;5075107;28;19928;-70
2022/11/13 09:23:49;;;;;;;;;;;4.40;99.90;;;;;;5074462;28;20372;-70
2022/11/13 09:26:15;;;;;;;;;;;4.50;99.90;;;;;;5074655;28;19909;-70
2022/11/13 09:28:40;;;;;;;;;;;4.70;99.90;;;;;;5073334;28;19909;-70
2022/11/13 09:31:06;;;;;;;;;;;4.80;99.90;;;;;;5073139;28;19919;-71
2022/11/13 09:33:32;;;;;;;;;;;5.00;99.90;;;;;;5074285;28;19916;-71
2022/11/13 09:35:58;;;;;;;;;;;5.00;99.90;;;;;;5074090;28;19916;-71
2022/11/13 09:38:23;;;;;;;;;;;5.10;99.90;;;;;;5074220;28;19947;-71
2022/11/13 09:41:10;;;;;;;;;;;5.20;99.90;;;;;;5074136;28;20370;-71
2022/11/13 09:43:41;;;;;;;;;;;5.30;99.90;;;;;;5074234;28;19916;-71
2022/11/13 09:46:11;;;;;;;;;;;5.40;99.90;;;;;;5074017;28;20391;-71
2022/11/13 09:48:37;;;;;;;;;;;5.60;99.90;;;;;;5074065;28;19940;-72
2022/11/13 09:51:11;;;;;;;;;;;5.60;99.90;;;;;;5074219;28;19927;-72
2022/11/13 09:53:38;;;;;;;;;;;5.70;99.90;;;;;;5072569;28;19909;-71
2022/11/13 09:56:22;;;;;;;;;;;5.80;99.90;;;;;;5073778;28;19978;-72
2022/11/13 09:58:50;;;;;;;;;;;5.90;99.90;;;;;;5073904;28;19959;-72
2022/11/13 10:01:34;;;;;;;;;;;6.00;99.90;;;;;;5073854;28;19909;-71
2022/11/13 10:04:03;;;;;;;;;;;6.20;99.90;;;;;;5073987;28;19954;-71
2022/11/13 10:06:31;;;;;;;;;;;6.30;99.90;;;;;;5073848;28;19958;-71
2022/11/13 10:09:11;;;;;;;;;;;6.50;99.90;;;;;;5072434;28;19916;-73
2022/11/13 10:11:39;;;;;;;;;;;6.60;99.90;;;;;;5074280;28;20241;-72
2022/11/13 10:14:15;;;;;;;;;;;6.80;99.90;;;;;;5073865;28;19909;-73
2022/11/13 10:16:50;;;;;;;;;;;6.90;99.90;;;;;;5074459;28;19912;-73
2022/11/13 10:19:42;;;;;;;;;;;7.00;99.90;;;;;;5073866;28;19955;-73
2022/11/13 10:22:12;;;;;;;;;;;7.10;99.90;;;;;;5057405;28;19915;-73
2022/11/13 10:24:39;;;;;;;;;;;7.30;99.90;;;;;;5073097;28;19908;-73
2022/11/13 10:27:09;;;;;;;;;;;7.50;99.90;;;;;;5073531;28;20312;-75
2022/11/13 10:29:35;;;;;;;;;;;7.70;99.90;;;;;;5073516;28;19918;-73
2022/11/13 10:32:21;;;;;;;;;;;7.80;99.90;;;;;;5073514;28;19995;-73
2022/11/13 10:34:56;;;;;;;;;;;8.10;99.90;;;;;;5073309;28;20388;-75
2022/11/13 10:37:26;;;;;;;;;;;8.30;99.90;;;;;;5073369;28;20015;-74
2022/11/13 10:39:51;;;;;;;;;;;8.50;99.90;;;;;;5073390;28;19928;-75
2022/11/13 10:42:22;;;;;;;;;;;8.70;99.90;;;;;;5073695;28;19957;-75
2022/11/13 10:44:51;;;;;;;;;;;8.80;99.90;;;;;;5073345;28;20262;-75
2022/11/13 10:47:18;;;;;;;;;;;8.90;99.90;;;;;;5073699;28;20259;-75
2022/11/13 10:49:44;;;;;;;;;;;9.00;99.90;;;;;;5073262;28;19908;-75
2022/11/13 10:52:18;;;;;;;;;;;9.20;99.90;;;;;;5073359;28;20007;-75
2022/11/13 10:54:43;;;;;;;;;;;9.30;99.90;;;;;;5073292;28;19964;-75
2022/11/13 10:57:18;;;;;;;;;;;9.50;99.90;;;;;;5073065;28;19962;-74
2022/11/13 10:59:44;;;;;;;;;;;9.60;99.90;;;;;;5073778;28;19912;-75
2022/11/13 11:02:17;;;;;;;;;;;9.70;99.90;;;;;;5073196;28;19909;-75
2022/11/13 11:04:42;;;;;;;;;;;9.90;99.90;;;;;;5071873;28;19908;-75
2022/11/13 11:07:15;;;;;;;;;;;10.00;99.90;;;;;;5073897;28;20361;-74
2022/11/13 11:09:45;;;;;;;;;;;10.10;99.90;;;;;;5071869;28;19908;-73
2022/11/13 11:12:17;;;;;;;;;;;10.20;99.90;;;;;;5073175;28;19995;-73
2022/11/13 11:14:45;;;;;;;;;;;10.40;99.90;;;;;;5073474;28;19928;-73
2022/11/13 11:17:13;;;;;;;;;;;10.50;99.90;;;;;;5073234;28;20326;-73
2022/11/13 11:19:39;;;;;;;;;;;10.50;99.90;;;;;;5073314;28;19908;-73
2022/11/13 11:22:27;;;;;;;;;;;10.60;99.90;;;;;;5073552;28;20402;-73
2022/11/13 11:25:11;;;;;;;;;;;10.80;99.90;;;;;;5071674;28;19908;-73
2022/11/13 11:27:40;;;;;;;;;;;10.90;99.90;;;;;;5074176;28;20299;-73
2022/11/13 11:30:14;;;;;;;;;;;11.00;99.90;;;;;;5072893;28;19992;-73
2022/11/13 11:32:45;;;;;;;;;;;11.10;99.90;;;;;;5072910;28;19909;-73
2022/11/13 11:35:34;;;;;;;;;;;11.20;99.90;;;;;;5073395;28;19915;-73
2022/11/13 11:38:10;;;;;;;;;;;11.30;99.90;;;;;;5070638;28;19942;-73
2022/11/13 11:40:40;;;;;;;;;;;11.40;99.90;;;;;;5076385;28;19957;-73
2022/11/13 11:43:19;;;;;;;;;;;11.50;99.90;;;;;;5076690;28;19909;-73
2022/11/13 11:45:45;;;;;;;;;;;11.50;99.90;;;;;;5076582;28;20356;-73
2022/11/13 11:48:12;;;;;;;;;;;11.70;99.90;;;;;;5076304;28;19908;-73
2022/11/13 11:50:45;;;;;;;;;;;11.80;99.90;;;;;;5076244;28;20010;-73
2022/11/13 11:53:28;;;;;;;;;;;11.90;99.90;;;;;;5076565;28;20043;-73
2022/11/13 11:56:03;;;;;;;;;;;12.00;99.90;;;;;;5076010;28;19908;-73
2022/11/13 11:58:49;;;;;;;;;;;12.20;99.90;;;;;;5074889;28;19950;-71
2022/11/13 12:01:33;;;;;;;;;;;12.40;99.90;;;;;;5068565;28;19908;-71
2022/11/13 12:04:05;;;;;;;;;;;12.50;99.90;;;;;;5075956;28;19909;-71
2022/11/13 12:06:47;;;;;;;;;;;12.80;99.90;;;;;;5075924;28;19908;-71
2022/11/13 12:09:31;;;;;;;;;;;13.10;99.90;;;;;;5075955;28;19923;-71
2022/11/13 12:12:19;;;;;;;;;;;13.40;99.90;;;;;;5075892;28;19995;-71
2022/11/13 12:14:44;;;;;;;;;;;13.60;96.90;;;;;;5074846;28;19916;-71
2022/11/13 12:17:26;;;;;;;;;;;13.80;99.90;;;;;;5075651;28;19919;-71
2022/11/13 12:20:01;;;;;;;;;;;13.80;99.90;;;;;;5076309;28;20011;-71
2022/11/13 12:22:29;;;;;;;;;;;13.80;99.90;;;;;;5075666;28;19909;-72
2022/11/13 12:25:20;;;;;;;;;;;13.90;99.90;;;;;;5075611;28;20364;-72
2022/11/13 12:27:52;;;;;;;;;;;14.00;99.90;;;;;;5075626;28;19915;-72
2022/11/13 12:30:19;;;;;;;;;;;14.00;99.90;;;;;;5075560;28;19908;-71
2022/11/13 12:33:02;;;;;;;;;;;14.10;97.30;;;;;;5076372;28;20308;-71
2022/11/13 12:35:28;;;;;;;;;;;14.30;98.70;;;;;;5075689;28;19908;-71
2022/11/13 12:38:12;;;;;;;;;;;14.60;91.70;;;;;;5075263;28;19916;-71
2022/11/13 12:40:41;;;;;;;;;;;14.80;90.50;;;;;;5075367;28;20275;-71
2022/11/13 12:43:06;;;;;;;;;;;15.00;86.90;;;;;;5075640;28;19908;-71
2022/11/13 12:45:37;;;;;;;;;;;15.00;82.90;;;;;;5075153;28;19909;-71
2022/11/13 12:48:06;;;;;;;;;;;15.00;90.70;;;;;;5074850;28;19909;-71
2022/11/13 12:50:32;;;;;;;;;;;15.10;93.20;;;;;;5075688;28;19924;-71
2022/11/13 12:52:58;;;;;;;;;;;15.10;95.80;;;;;;5075450;28;19912;-71
2022/11/13 12:55:31;;;;;;;;;;;15.10;92.10;;;;;;5075035;28;20038;-71
2022/11/13 12:58:10;;;;;;;;;;;15.10;90.60;;;;;;5074938;28;19966;-71
2022/11/13 13:00:38;;;;;;;;;;;15.10;79.70;;;;;;5075535;28;19931;-71
2022/11/13 13:03:06;;;;;;;;;;;15.10;75.30;;;;;;5074892;28;19908;-70
2022/11/13 13:05:37;;;;;;;;;;;15.10;71.50;;;;;;5074815;28;19931;-70
2022/11/13 13:08:10;;;;;;;;;;;15.10;70.10;;;;;;5075066;28;19908;-70
2022/11/13 13:10:56;;;;;;;;;;;15.10;68.30;;;;;;5073462;28;19998;-69
2022/11/13 13:13:28;;;;;;;;;;;15.20;69.50;;;;;;5074971;28;19912;-70
2022/11/13 13:15:58;;;;;;;;;;;15.30;68.90;;;;;;5074496;28;20356;-70
2022/11/13 13:18:50;;;;;;;;;;;15.20;67.30;;;;;;5074899;28;19912;-69
2022/11/13 13:21:16;;;;;;;;;;;15.20;67.80;;;;;;5072366;28;19909;-69
2022/11/13 13:23:46;;;;;;;;;;;15.30;67.90;;;;;;5074464;28;20406;-69
2022/11/13 13:26:12;;;;;;;;;;;15.30;66.80;;;;;;5074293;28;19919;-69
2022/11/13 13:28:39;;;;;;;;;;;15.30;65.40;;;;;;5074404;28;19908;-70
2022/11/13 13:31:08;;;;;;;;;;;15.30;64.60;;;;;;5074299;28;20042;-70
2022/11/13 13:33:41;;;;;;;;;;;15.30;64.40;;;;;;5074212;28;19909;-69
2022/11/13 13:36:13;;;;;;;;;;;15.30;64.80;;;;;;5074252;28;20364;-69
2022/11/13 13:38:46;;;;;;;;;;;15.30;66.40;;;;;;5074731;28;19916;-69
2022/11/13 13:41:28;;;;;;;;;;;15.20;66.90;;;;;;5074342;28;19912;-69
2022/11/13 13:44:16;;;;;;;;;;;15.20;66.50;;;;;;5074312;28;19931;-69
2022/11/13 13:46:42;;;;;;;;;;;15.10;67.30;;;;;;5074025;28;20117;-69
2022/11/13 13:49:13;;;;;;;;;;;15.10;65.60;;;;;;5074423;28;20353;-69
2022/11/13 13:51:44;;;;;;;;;;;15.20;69.50;;;;;;5074510;28;19908;-69
2022/11/13 13:54:14;;;;;;;;;;;15.30;70.80;;;;;;5073943;28;19952;-69
2022/11/13 13:56:40;;;;;;;;;;;15.20;69.30;;;;;;5073638;28;19913;-68
2022/11/13 13:59:29;;;;;;;;;;;15.20;69.20;;;;;;5072248;28;19920;-68
2022/11/13 14:01:59;;;;;;;;;;;15.20;69.00;;;;;;5068099;28;20007;-68
2022/11/13 14:04:26;;;;;;;;;;;15.20;68.60;;;;;;5072513;28;19915;-70
2022/11/13 14:06:53;;;;;;;;;;;15.10;68.10;;;;;;5073749;28;20284;-69
2022/11/13 14:09:23;;;;;;;;;;;15.10;69.00;;;;;;5073776;28;19915;-70
2022/11/13 14:11:55;;;;;;;;;;;15.00;69.70;;;;;;5073707;28;19908;-70
2022/11/13 14:14:22;;;;;;;;;;;14.90;70.50;;;;;;5073771;28;19924;-70
2022/11/13 14:16:48;;;;;;;;;;;14.70;71.40;;;;;;5073522;28;19966;-70
2022/11/13 14:19:16;;;;;;;;;;;14.60;70.50;;;;;;5073182;28;20476;-70
2022/11/13 14:21:43;;;;;;;;;;;14.60;70.20;;;;;;5073879;28;20011;-69
2022/11/13 14:24:18;;;;;;;;;;;14.50;69.40;;;;;;5073935;28;19909;-69
2022/11/13 14:26:43;;;;;;;;;;;14.50;69.90;;;;;;5074037;28;19915;-69
2022/11/13 14:29:18;;;;;;;;;;;14.50;70.90;;;;;;5073811;28;19913;-70
2022/11/13 14:31:44;;;;;;;;;;;14.40;71.00;;;;;;5073543;28;19908;-70
2022/11/13 14:34:19;;;;;;;;;;;14.30;67.70;;;;;;5073463;28;19920;-69